createdAt,value
2017-09-05T00:02:10.657Z,15
2017-09-05T00:12:10.694Z,18
2017-09-05T00:22:10.706Z,16
2017-09-05T00:32:10.630Z,17
2017-09-05T00:42:10.602Z,18
2017-09-05T00:52:10.700Z,18
2017-09-05T01:02:10.620Z,21
2017-09-05T01:12:10.684Z,18
2017-09-05T01:22:10.672Z,19
2017-09-05T01:32:10.646Z,18
2017-09-05T01:42:10.673Z,20
2017-09-05T01:52:10.598Z,17
2017-09-05T02:02:10.599Z,17
2017-09-05T02:12:10.746Z,16
2017-09-05T02:22:10.981Z,17
2017-09-05T02:32:10.598Z,19
2017-09-05T02:42:10.657Z,18
2017-09-05T02:52:10.564Z,21
2017-09-05T03:02:10.735Z,21
2017-09-05T03:12:10.621Z,22
2017-09-05T03:22:10.611Z,21
2017-09-05T03:32:10.665Z,20
2017-09-05T03:42:10.662Z,21
2017-09-05T03:52:10.726Z,21
2017-09-05T04:02:10.661Z,20
2017-09-05T04:12:10.643Z,19
2017-09-05T04:22:10.678Z,20
2017-09-05T04:32:10.630Z,20
2017-09-05T04:42:10.695Z,20
2017-09-05T04:52:10.677Z,21
2017-09-05T05:02:10.636Z,22
2017-09-05T05:12:10.692Z,21
2017-09-05T05:22:10.672Z,19
2017-09-05T05:32:10.614Z,18
2017-09-05T05:42:10.675Z,19
2017-09-05T05:52:10.640Z,19
2017-09-05T06:02:10.692Z,19
2017-09-05T06:12:10.630Z,17
2017-09-05T06:22:10.659Z,22
2017-09-05T06:32:10.634Z,17
2017-09-05T06:42:10.621Z,16
2017-09-05T06:52:10.714Z,18
2017-09-05T07:02:10.627Z,17
2017-09-05T07:12:10.656Z,17
2017-09-05T07:22:10.691Z,16
2017-09-05T07:32:10.665Z,14
2017-09-05T07:42:10.630Z,15
2017-09-05T07:52:10.706Z,15
2017-09-05T08:02:10.686Z,16
2017-09-05T08:12:10.694Z,15
2017-09-05T08:22:10.679Z,16
2017-09-05T08:32:10.631Z,15
2017-09-05T08:42:10.838Z,14
2017-09-05T08:52:10.662Z,14
2017-09-05T09:02:10.677Z,13
2017-09-05T09:12:10.678Z,13
2017-09-05T09:22:10.763Z,12
2017-09-05T09:32:10.722Z,10
2017-09-05T09:42:10.665Z,12
2017-09-05T09:52:10.658Z,10
2017-09-05T10:02:10.666Z,10
2017-09-05T10:12:10.623Z,9
2017-09-05T10:22:10.677Z,7
2017-09-05T10:32:10.666Z,6
2017-09-05T10:42:10.649Z,7
2017-09-05T10:52:10.631Z,6
2017-09-05T11:02:10.665Z,5
2017-09-05T11:12:10.649Z,6
2017-09-05T11:22:10.718Z,6
2017-09-05T11:32:10.639Z,6
2017-09-05T11:42:10.677Z,5
2017-09-05T11:52:10.665Z,5
2017-09-05T12:02:10.630Z,4
2017-09-05T12:12:10.663Z,6
2017-09-05T12:22:10.872Z,4
2017-09-05T12:32:11.311Z,5
2017-09-05T12:42:10.718Z,5
2017-09-05T12:52:11.353Z,4
2017-09-05T13:02:10.710Z,5
2017-09-05T13:12:10.683Z,5
2017-09-05T13:22:10.658Z,5
2017-09-05T13:32:10.721Z,5
2017-09-05T13:42:10.722Z,5
2017-09-05T13:52:11.051Z,6
2017-09-05T14:02:10.789Z,5
2017-09-05T14:12:10.846Z,5
2017-09-05T14:22:10.878Z,5
2017-09-05T14:32:10.859Z,5
2017-09-05T14:42:10.769Z,5
2017-09-05T14:52:10.803Z,5
2017-09-05T15:02:10.690Z,5
2017-09-05T15:12:10.859Z,6
2017-09-05T15:22:10.779Z,5
2017-09-05T15:32:11.262Z,9
2017-09-05T15:42:10.808Z,8
2017-09-05T15:52:10.878Z,5
2017-09-05T16:02:11.027Z,4
2017-09-05T16:12:10.799Z,4
2017-09-05T16:22:10.854Z,4
2017-09-05T16:32:10.911Z,5
2017-09-05T16:42:10.792Z,6
2017-09-05T16:52:11.230Z,6
2017-09-05T17:02:10.789Z,4
2017-09-05T17:12:10.837Z,5
2017-09-05T17:22:10.805Z,5
2017-09-05T17:32:10.720Z,5
2017-09-05T17:42:10.831Z,6
2017-09-05T17:52:10.856Z,6
2017-09-05T18:02:10.891Z,5
2017-09-05T18:12:10.873Z,6
2017-09-05T18:22:11.501Z,5
2017-09-05T18:32:11.132Z,4
2017-09-05T18:42:12.477Z,4
2017-09-05T18:52:12.511Z,4
2017-09-05T19:02:13.872Z,5
2017-09-05T19:12:12.032Z,5
2017-09-05T19:22:10.878Z,7
2017-09-05T19:32:10.844Z,5
2017-09-05T19:42:10.798Z,6
2017-09-05T19:52:26.888Z,6
2017-09-05T20:02:29.571Z,6
2017-09-05T20:12:13.256Z,7
2017-09-05T20:22:27.204Z,6
2017-09-05T20:32:28.008Z,7
2017-09-05T20:42:26.611Z,8
2017-09-05T20:52:10.827Z,7
2017-09-05T21:02:10.940Z,7
2017-09-05T21:12:10.827Z,7
2017-09-05T21:22:10.866Z,7
2017-09-05T21:32:10.814Z,6
2017-09-05T21:42:10.804Z,6
2017-09-05T21:52:10.888Z,7
2017-09-05T22:02:10.812Z,7
2017-09-05T22:12:10.843Z,8
2017-09-05T22:22:10.878Z,10
2017-09-05T22:32:10.783Z,14
2017-09-05T22:42:10.888Z,11
2017-09-05T22:52:10.824Z,7
2017-09-05T23:02:10.788Z,6
2017-09-05T23:12:10.815Z,7
2017-09-05T23:22:10.814Z,7
2017-09-05T23:32:10.858Z,6
2017-09-05T23:42:10.827Z,7
2017-09-05T23:52:10.772Z,6
